createdAt,value
2019-04-26T00:00:00.000Z,17.7
2019-04-26T00:05:00.000Z,17.7
2019-04-26T00:10:00.000Z,17.7
2019-04-26T00:15:00.000Z,17.7
2019-04-26T00:20:00.000Z,17.7
2019-04-26T00:25:00.000Z,17.6
2019-04-26T00:30:00.000Z,17.6
2019-04-26T00:35:00.000Z,17.5
2019-04-26T00:40:00.000Z,17.5
2019-04-26T00:45:00.000Z,17.5
2019-04-26T00:50:00.000Z,17.4
2019-04-26T00:55:00.000Z,17.3
2019-04-26T01:00:00.000Z,17.3
2019-04-26T01:05:00.000Z,17.3
2019-04-26T01:11:00.000Z,17.2
2019-04-26T01:16:00.000Z,17.2
2019-04-26T01:21:00.000Z,17.1
2019-04-26T01:26:00.000Z,17.1
2019-04-26T01:31:00.000Z,17.1
2019-04-26T01:36:00.000Z,17.1
2019-04-26T01:41:00.000Z,17.0
2019-04-26T01:46:00.000Z,17.0
2019-04-26T01:51:00.000Z,16.9
2019-04-26T01:56:00.000Z,16.9
2019-04-26T02:01:00.000Z,16.8
2019-04-26T02:06:00.000Z,16.7
2019-04-26T02:11:00.000Z,16.6
2019-04-26T02:16:00.000Z,16.6
2019-04-26T02:21:00.000Z,16.6
2019-04-26T02:26:00.000Z,16.6
2019-04-26T02:31:00.000Z,16.6
2019-04-26T02:36:00.000Z,16.6
2019-04-26T02:41:00.000Z,16.5
2019-04-26T02:46:00.000Z,16.4
2019-04-26T02:52:00.000Z,16.3
2019-04-26T02:57:00.000Z,16.2
2019-04-26T03:02:00.000Z,16.1
2019-04-26T03:07:00.000Z,16.0
2019-04-26T03:12:00.000Z,16.0
2019-04-26T03:17:00.000Z,15.9
2019-04-26T03:22:00.000Z,15.8
2019-04-26T03:27:00.000Z,15.7
2019-04-26T03:32:00.000Z,15.7
2019-04-26T03:37:00.000Z,15.7
2019-04-26T03:42:00.000Z,15.7
2019-04-26T03:47:00.000Z,15.7
2019-04-26T03:52:00.000Z,15.7
2019-04-26T03:57:00.000Z,15.7
2019-04-26T04:02:00.000Z,15.7
2019-04-26T04:07:00.000Z,15.7
2019-04-26T04:12:00.000Z,15.8
2019-04-26T04:17:00.000Z,15.9
2019-04-26T04:22:00.000Z,15.9
2019-04-26T04:27:00.000Z,16.0
2019-04-26T04:32:00.000Z,16.0
2019-04-26T04:37:00.000Z,16.1
2019-04-26T04:43:00.000Z,16.2
2019-04-26T04:48:00.000Z,16.3
2019-04-26T04:53:00.000Z,16.4
2019-04-26T04:58:00.000Z,16.6
2019-04-26T05:03:00.000Z,16.7
2019-04-26T05:08:00.000Z,16.9
2019-04-26T05:13:00.000Z,17.1
2019-04-26T05:18:00.000Z,17.3
2019-04-26T05:23:00.000Z,17.4
2019-04-26T05:28:00.000Z,17.6
2019-04-26T05:33:00.000Z,17.7
2019-04-26T05:38:00.000Z,17.8
2019-04-26T05:43:00.000Z,17.8
2019-04-26T05:48:00.000Z,17.8
2019-04-26T05:53:00.000Z,17.8
2019-04-26T05:58:00.000Z,17.8
2019-04-26T06:03:00.000Z,17.9
2019-04-26T06:08:00.000Z,17.9
2019-04-26T06:13:00.000Z,18.0
2019-04-26T06:18:00.000Z,18.1
2019-04-26T06:23:00.000Z,18.2
2019-04-26T06:28:00.000Z,18.3
2019-04-26T06:33:00.000Z,18.5
2019-04-26T06:38:00.000Z,18.7
2019-04-26T06:43:00.000Z,19.0
2019-04-26T06:48:00.000Z,19.2
2019-04-26T06:53:00.000Z,19.5
2019-04-26T06:58:00.000Z,19.8
2019-04-26T07:03:00.000Z,20.0
2019-04-26T07:08:00.000Z,20.3
2019-04-26T07:14:00.000Z,20.7
2019-04-26T07:19:00.000Z,21.0
2019-04-26T07:24:00.000Z,21.3
2019-04-26T07:29:00.000Z,21.7
2019-04-26T07:34:00.000Z,22.2
2019-04-26T07:39:00.000Z,22.5
2019-04-26T07:44:00.000Z,23.1
2019-04-26T07:49:00.000Z,24.1
2019-04-26T07:54:00.000Z,25.2
2019-04-26T07:59:00.000Z,26.2
2019-04-26T08:04:00.000Z,27.1
2019-04-26T08:09:00.000Z,27.9
2019-04-26T08:14:00.000Z,28.6
2019-04-26T08:19:00.000Z,29.2
2019-04-26T08:24:00.000Z,29.5
2019-04-26T08:29:00.000Z,30.1
2019-04-26T08:34:00.000Z,30.4
2019-04-26T08:39:00.000Z,30.7
2019-04-26T08:44:00.000Z,31.0
2019-04-26T08:49:00.000Z,31.5
2019-04-26T08:54:00.000Z,31.3
2019-04-26T08:59:00.000Z,31.0
2019-04-26T09:04:00.000Z,30.8
2019-04-26T09:09:00.000Z,30.3
2019-04-26T09:15:00.000Z,29.7
2019-04-26T09:20:00.000Z,29.2
2019-04-26T09:25:00.000Z,28.6
2019-04-26T09:30:00.000Z,28.2
2019-04-26T09:35:00.000Z,27.8
2019-04-26T09:40:00.000Z,27.4
2019-04-26T09:45:00.000Z,27.2
2019-04-26T09:50:00.000Z,26.9
2019-04-26T09:55:00.000Z,26.5
2019-04-26T10:00:00.000Z,26.3
2019-04-26T10:05:00.000Z,26.3
2019-04-26T10:10:00.000Z,26.4
2019-04-26T10:15:00.000Z,26.4
2019-04-26T10:20:00.000Z,26.4
2019-04-26T10:25:00.000Z,26.3
2019-04-26T10:30:00.000Z,26.3
2019-04-26T10:35:00.000Z,26.3
2019-04-26T10:40:00.000Z,26.1
2019-04-26T10:45:00.000Z,26.0
2019-04-26T10:50:00.000Z,26.0
2019-04-26T10:55:00.000Z,25.9
2019-04-26T11:00:00.000Z,26.2
2019-04-26T11:05:00.000Z,26.6
2019-04-26T11:10:00.000Z,27.0
2019-04-26T11:15:00.000Z,27.2
2019-04-26T11:21:00.000Z,27.0
2019-04-26T11:26:00.000Z,26.8
2019-04-26T11:31:00.000Z,26.7
2019-04-26T11:36:00.000Z,26.6
2019-04-26T11:41:00.000Z,26.3
2019-04-26T11:46:00.000Z,26.3
2019-04-26T11:51:00.000Z,26.5
2019-04-26T11:56:00.000Z,26.8
2019-04-26T12:01:00.000Z,27.1
2019-04-26T12:06:00.000Z,27.2
2019-04-26T12:11:00.000Z,27.4
2019-04-26T12:16:00.000Z,27.7
2019-04-26T12:21:00.000Z,27.7
2019-04-26T12:26:00.000Z,27.7
2019-04-26T12:31:00.000Z,27.8
2019-04-26T12:36:00.000Z,27.8
2019-04-26T12:41:00.000Z,27.7
2019-04-26T12:46:00.000Z,27.5
2019-04-26T12:51:00.000Z,27.1
2019-04-26T12:56:00.000Z,26.9
2019-04-26T13:01:00.000Z,26.6
2019-04-26T13:07:00.000Z,26.2
2019-04-26T13:12:00.000Z,26.0
2019-04-26T13:17:00.000Z,26.0
2019-04-26T13:22:00.000Z,26.0
2019-04-26T13:27:00.000Z,26.1
2019-04-26T13:32:00.000Z,26.4
2019-04-26T13:37:00.000Z,26.6
2019-04-26T13:42:00.000Z,26.8
2019-04-26T13:47:00.000Z,27.1
2019-04-26T13:52:00.000Z,27.0
2019-04-26T13:57:00.000Z,27.0
2019-04-26T14:02:00.000Z,27.2
2019-04-26T14:08:00.000Z,27.0
2019-04-26T14:13:00.000Z,26.9
2019-04-26T14:18:00.000Z,26.4
2019-04-26T14:23:00.000Z,26.0
2019-04-26T14:28:00.000Z,25.7
2019-04-26T14:33:00.000Z,25.6
2019-04-26T14:38:00.000Z,25.7
2019-04-26T14:43:00.000Z,25.7
2019-04-26T14:48:00.000Z,25.6
2019-04-26T14:53:00.000Z,25.6
2019-04-26T14:58:00.000Z,25.6
2019-04-26T15:03:00.000Z,25.4
2019-04-26T15:08:00.000Z,25.1
2019-04-26T15:13:00.000Z,24.8
2019-04-26T15:18:00.000Z,24.5
2019-04-26T15:23:00.000Z,24.4
2019-04-26T15:34:00.000Z,24.2
2019-04-26T15:39:00.000Z,24.1
2019-04-26T15:44:00.000Z,24.0
2019-04-26T15:49:00.000Z,23.9
2019-04-26T15:54:00.000Z,23.9
2019-04-26T15:59:00.000Z,23.8
2019-04-26T16:04:00.000Z,23.8
2019-04-26T16:09:00.000Z,23.9
2019-04-26T16:14:00.000Z,23.9
2019-04-26T16:19:00.000Z,23.9
2019-04-26T16:24:00.000Z,23.9
2019-04-26T16:29:00.000Z,23.8
2019-04-26T16:34:00.000Z,23.6
2019-04-26T16:39:00.000Z,23.6
2019-04-26T16:44:00.000Z,23.4
2019-04-26T16:49:00.000Z,22.9
2019-04-26T16:55:00.000Z,22.0
2019-04-26T17:00:00.000Z,21.4
2019-04-26T17:05:00.000Z,20.9
2019-04-26T17:10:00.000Z,20.4
2019-04-26T17:15:00.000Z,20.0
2019-04-26T17:20:00.000Z,19.6
2019-04-26T17:25:00.000Z,19.2
2019-04-26T17:30:00.000Z,18.9
2019-04-26T17:35:00.000Z,18.5
2019-04-26T17:40:00.000Z,18.1
2019-04-26T17:45:00.000Z,17.7
2019-04-26T17:50:00.000Z,17.4
2019-04-26T17:55:00.000Z,17.1
2019-04-26T18:00:00.000Z,16.8
2019-04-26T18:06:00.000Z,16.6
2019-04-26T18:11:00.000Z,16.3
2019-04-26T18:16:00.000Z,16.0
2019-04-26T18:21:00.000Z,15.7
2019-04-26T18:26:00.000Z,15.4
2019-04-26T18:31:00.000Z,15.2
2019-04-26T18:36:00.000Z,15.0
2019-04-26T18:41:00.000Z,14.8
2019-04-26T18:46:00.000Z,14.7
2019-04-26T18:51:00.000Z,14.5
2019-04-26T18:56:00.000Z,14.2
2019-04-26T19:01:00.000Z,14.1
2019-04-26T19:06:00.000Z,13.9
2019-04-26T19:11:00.000Z,13.8
2019-04-26T19:16:00.000Z,13.7
2019-04-26T19:21:00.000Z,13.6
2019-04-26T19:26:00.000Z,13.4
2019-04-26T19:31:00.000Z,13.3
2019-04-26T19:36:00.000Z,13.3
2019-04-26T19:42:00.000Z,13.2
2019-04-26T19:47:00.000Z,13.1
2019-04-26T19:52:00.000Z,13.0
2019-04-26T19:57:00.000Z,12.9
2019-04-26T20:02:00.000Z,12.7
2019-04-26T20:07:00.000Z,12.6
2019-04-26T20:12:00.000Z,12.5
2019-04-26T20:22:00.000Z,12.3
2019-04-26T20:27:00.000Z,12.2
2019-04-26T20:32:00.000Z,12.1
2019-04-26T20:37:00.000Z,12.0
2019-04-26T20:42:00.000Z,11.9
2019-04-26T20:47:00.000Z,11.8
2019-04-26T20:52:00.000Z,11.7
2019-04-26T20:57:00.000Z,11.6
2019-04-26T21:02:00.000Z,11.5
2019-04-26T21:07:00.000Z,11.4
2019-04-26T21:12:00.000Z,11.3
2019-04-26T21:17:00.000Z,11.2
2019-04-26T21:22:00.000Z,11.1
2019-04-26T21:27:00.000Z,11.1
2019-04-26T21:32:00.000Z,11.1
2019-04-26T21:37:00.000Z,11.0
2019-04-26T21:42:00.000Z,11.0
2019-04-26T21:48:00.000Z,11.0
2019-04-26T21:53:00.000Z,10.9
2019-04-26T21:58:00.000Z,10.9
2019-04-26T22:03:00.000Z,10.9
2019-04-26T22:08:00.000Z,10.9
2019-04-26T22:13:00.000Z,10.9
2019-04-26T22:18:00.000Z,10.9
2019-04-26T22:23:00.000Z,10.9
2019-04-26T22:28:00.000Z,10.9
2019-04-26T22:33:00.000Z,10.9
2019-04-26T22:38:00.000Z,10.9
2019-04-26T22:43:00.000Z,10.9
2019-04-26T22:48:00.000Z,10.9
2019-04-26T22:53:00.000Z,10.9
2019-04-26T22:58:00.000Z,10.8
2019-04-26T23:03:00.000Z,10.8
2019-04-26T23:08:00.000Z,10.8
2019-04-26T23:13:00.000Z,10.8
2019-04-26T23:18:00.000Z,10.8
2019-04-26T23:23:00.000Z,10.7
2019-04-26T23:28:00.000Z,10.7
2019-04-26T23:33:00.000Z,10.7
2019-04-26T23:38:00.000Z,10.7
2019-04-26T23:43:00.000Z,10.7
2019-04-26T23:49:00.000Z,10.7
2019-04-26T23:54:00.000Z,10.7
2019-04-26T23:59:00.000Z,10.8
